Terminal Aerodrome Forecast
Issued by NWS North Platte, NE

Home | Current Version | Previous Version | Graphics & Text | Print | Product List | Glossary On
Versions: 1 2 3 4 5 6 7 8 9 10 11 12 13 14
000
FTUS43 KLBF 191700
TAFVTN
TAF
KVTN 191740Z 1918/2018 32011KT P6SM SCT025 OVC035
      TEMPO 1918/1920 BKN025
     FM200100 32004KT P6SM BKN035
     FM200500 VRB05KT P6SM SCT035
     FM201200 VRB03KT P6SM SCT025
     FM201600 VRB05KT P6SM SCT150=

USA.gov is the U.S. government's official web portal to all federal, state and local government web resources and services.